Time;durP1;ratioP1;P1;durP2;ratioP2;P2;SDS_P1;SDS_P2;PMS_P1;PMS_P2;Temp;Humidity;BMP_temperature;BMP_pressure;BME280_temperature;BME280_humidity;BME280_pressure;Samples;Min_cycle;Max_cycle;Signal;HPM_P1;HPM_P2
2022/06/01 00:00:57;;;;;;;4.40;4.10;;;;;;;29.44;49.27;101180.13;4164649;28;19959;-67
2022/06/01 00:02:59;;;;;;;4.45;4.05;;;;;;;29.46;49.00;101186.25;4163352;28;20477;-68
2022/06/01 00:05:03;;;;;;;5.55;4.38;;;;;;;29.46;49.02;101183.44;4163692;28;20432;-68
2022/06/01 00:07:05;;;;;;;4.55;4.15;;;;;;;29.44;49.20;101185.78;4162501;28;20444;-67
2022/06/01 00:09:06;;;;;;;4.70;4.30;;;;;;;29.44;49.48;101182.97;4163595;28;20037;-68
2022/06/01 00:11:14;;;;;;;5.25;4.75;;;;;;;29.42;49.22;101185.28;4163685;28;20087;-68
2022/06/01 00:13:15;;;;;;;4.97;4.57;;;;;;;29.44;49.40;101194.22;4163492;28;20041;-67
2022/06/01 00:15:18;;;;;;;5.00;4.60;;;;;;;29.44;49.56;101189.41;4163663;28;20100;-68
2022/06/01 00:17:20;;;;;;;4.53;4.15;;;;;;;29.22;49.69;101152.97;4163434;28;20038;-68
2022/06/01 00:19:22;;;;;;;4.80;4.40;;;;;;;29.44;49.30;101199.88;4163462;28;20037;-67
2022/06/01 00:21:24;;;;;;;5.25;4.63;;;;;;;29.45;49.68;101195.88;4163815;28;20049;-67
2022/06/01 00:23:25;;;;;;;5.07;4.60;;;;;;;29.46;49.61;101203.16;4163734;28;20087;-67
2022/06/01 00:25:27;;;;;;;6.50;4.60;;;;;;;29.42;49.62;101191.75;4174910;28;20041;-67
2022/06/01 00:27:31;;;;;;;5.13;4.30;;;;;;;29.45;49.46;101196.72;4162616;28;20037;-68
2022/06/01 00:29:37;;;;;;;5.22;4.72;;;;;;;29.46;49.48;101194.72;4163656;28;20046;-68
2022/06/01 00:31:41;;;;;;;4.65;4.35;;;;;;;29.38;49.10;101191.59;4164056;28;20068;-68
2022/06/01 00:33:43;;;;;;;5.20;4.60;;;;;;;29.46;49.60;101204.03;4163566;28;20416;-67
2022/06/01 00:35:44;;;;;;;5.38;4.88;;;;;;;29.47;49.73;101200.03;4163809;28;20033;-67
2022/06/01 00:37:46;;;;;;;4.60;4.30;;;;;;;29.47;49.43;101199.22;4163187;28;20087;-68
2022/06/01 00:39:50;;;;;;;4.78;4.32;;;;;;;29.47;49.43;101210.50;4163963;28;20076;-68
2022/06/01 00:41:52;;;;;;;7.53;4.90;;;;;;;29.47;49.59;101200.03;4162711;28;20091;-68
2022/06/01 00:43:53;;;;;;;5.20;4.70;;;;;;;29.46;49.40;101195.56;4163653;28;20041;-67
2022/06/01 00:45:54;;;;;;;4.90;4.50;;;;;;;29.47;49.42;101199.22;4163866;28;20099;-67
2022/06/01 00:47:56;;;;;;;5.65;5.15;;;;;;;29.47;49.40;101200.03;4164076;28;20064;-67
2022/06/01 00:50:30;;;;;;;5.00;4.60;;;;;;;29.45;49.61;101193.88;4164069;28;20037;-67
2022/06/01 00:52:35;;;;;;;5.20;4.70;;;;;;;29.49;49.50;101191.25;4157011;28;20081;-67
2022/06/01 00:54:37;;;;;;;4.97;4.57;;;;;;;29.50;49.68;101204.16;4163761;28;20461;-67
2022/06/01 00:56:44;;;;;;;5.28;4.88;;;;;;;29.42;49.58;101190.94;4165534;28;20049;-68
2022/06/01 00:58:49;;;;;;;5.22;4.72;;;;;;;29.50;49.44;101206.97;4166613;28;20037;-67
2022/06/01 01:00:52;;;;;;;5.38;4.88;;;;;;;29.44;49.83;101199.88;4169087;28;20045;-68
2022/06/01 01:02:55;;;;;;;5.22;4.82;;;;;;;29.48;49.67;101203.69;4166725;28;20041;-68
2022/06/01 01:04:57;;;;;;;5.18;4.78;;;;;;;29.45;49.47;101190.25;4166196;28;20045;-67
2022/06/01 01:07:03;;;;;;;5.72;5.20;;;;;;;29.49;49.58;101214.63;4166003;28;20536;-67
2022/06/01 01:09:07;;;;;;;5.57;5.07;;;;;;;29.49;49.48;101214.63;4166381;28;20489;-67
2022/06/01 01:11:10;;;;;;;5.32;4.93;;;;;;;29.51;49.57;101211.50;4166986;28;20037;-67
2022/06/01 01:13:14;;;;;;;5.20;4.80;;;;;;;29.51;49.65;101219.94;4165888;28;20046;-67
2022/06/01 01:15:16;;;;;;;5.20;4.80;;;;;;;29.37;49.60;101198.41;4166466;28;20473;-67
2022/06/01 01:17:21;;;;;;;5.45;4.95;;;;;;;29.51;49.44;101225.59;4165836;28;20037;-67
2022/06/01 01:19:52;;;;;;;5.03;4.63;;;;;;;29.49;49.55;101220.25;4171210;28;20046;-67
2022/06/01 01:22:43;;;;;;;5.28;4.88;;;;;;;29.51;49.65;101222.75;4184439;28;20087;-68
2022/06/01 01:25:04;;;;;;;5.35;4.95;;;;;;;29.56;49.54;101231.09;4161730;28;20040;-68
2022/06/01 01:27:07;;;;;;;5.40;4.93;;;;;;;29.56;49.69;101231.09;4174455;28;20091;-68
2022/06/01 01:29:10;;;;;;;6.65;5.60;;;;;;;29.55;49.56;101230.25;4166514;28;20045;-68
2022/06/01 01:31:18;;;;;;;6.05;5.50;;;;;;;29.54;49.46;101233.34;4170411;28;20076;-69
2022/06/01 01:33:27;;;;;;;5.60;5.10;;;;;;;29.54;49.62;101239.00;4157607;28;20133;-68
2022/06/01 01:35:29;;;;;;;5.95;5.45;;;;;;;29.55;49.76;101241.53;4170988;28;20443;-68
2022/06/01 01:37:30;;;;;;;5.40;5.00;;;;;;;29.55;49.45;101251.97;4172351;28;20064;-69
2022/06/01 01:39:35;;;;;;;5.28;4.88;;;;;;;29.55;49.38;101247.19;4166139;28;20037;-69
2022/06/01 01:41:39;;;;;;;;;;;;;;;29.54;49.55;101253.91;4168654;28;20435;-69
2022/06/01 01:44:00;;;;;;;6.07;5.53;;;;;;;29.59;49.45;101252.94;4168153;28;19971;-69
2022/06/01 01:46:01;;;;;;;5.32;4.93;;;;;;;29.61;49.10;101250.66;4165622;28;20052;-68
2022/06/01 01:48:04;;;;;;;5.25;4.80;;;;;;;29.59;49.53;101250.13;4166943;28;20049;-67
2022/06/01 01:50:10;;;;;;;6.00;5.50;;;;;;;29.57;49.30;101255.28;4171986;28;20032;-68
2022/06/01 01:52:15;;;;;;;5.55;5.05;;;;;;;29.56;49.65;101257.28;4173401;28;20115;-68
2022/06/01 01:54:23;;;;;;;5.53;5.00;;;;;;;29.55;49.42;101263.22;4182654;28;20028;-69
2022/06/01 01:56:47;;;;;;;5.18;4.72;;;;;;;29.49;49.37;101253.25;4178672;28;20099;-68
2022/06/01 01:59:16;;;;;;;5.93;5.13;;;;;;;29.54;49.57;101261.56;4177004;28;20079;-69
2022/06/01 02:01:29;;;;;;;5.35;4.95;;;;;;;29.54;49.57;101255.91;4170111;28;20034;-68
2022/06/01 02:03:37;;;;;;;5.30;4.75;;;;;;;29.52;49.39;101258.25;4163881;28;20033;-68
2022/06/01 02:06:11;;;;;;;5.05;4.63;;;;;;;29.54;49.77;101262.38;4167917;28;20451;-68
2022/06/01 02:08:41;;;;;;;6.13;5.63;;;;;;;29.56;49.58;101262.09;4168206;28;20037;-69
2022/06/01 02:13:04;;;;;;;5.28;4.78;;;;;;;29.57;49.97;101260.94;4166579;28;20056;-69
2022/06/01 02:15:06;;;;;;;5.63;5.22;;;;;;;29.56;49.76;101262.94;4169822;28;20030;-69
2022/06/01 02:17:40;;;;;;;6.07;5.40;;;;;;;29.54;49.64;101264.38;4167693;28;20045;-68
2022/06/01 02:19:58;;;;;;;12.15;5.95;;;;;;;29.56;49.99;101267.75;4170201;28;20099;-69
2022/06/01 02:22:00;;;;;;;9.15;4.75;;;;;;;29.54;49.56;101264.38;4173589;28;20037;-67
2022/06/01 02:24:04;;;;;;;6.97;5.22;;;;;;;29.54;50.27;101259.56;4169395;28;20041;-68
2022/06/01 02:26:09;;;;;;;5.68;4.72;;;;;;;29.58;49.75;101265.41;4179429;28;20053;-68
2022/06/01 02:28:11;;;;;;;;;;;;;;;29.56;49.78;101264.91;4171499;28;20025;-68
2022/06/01 02:30:21;;;;;;;24.25;6.50;;;;;;;29.59;50.04;101261.41;4154967;28;20042;-69
2022/06/01 02:32:25;;;;;;;8.93;5.55;;;;;;;29.62;49.77;101266.41;4165747;28;20087;-69
2022/06/01 02:34:31;;;;;;;;;;;;;;;29.60;49.74;101260.28;4167727;28;20107;-67
2022/06/01 02:36:32;;;;;;;10.10;5.50;;;;;;;29.64;49.77;101261.25;4165093;28;20281;-68
2022/06/01 02:38:48;;;;;;;6.45;5.32;;;;;;;29.64;49.92;101261.25;4178565;28;20033;-69
2022/06/01 02:40:50;;;;;;;7.43;5.72;;;;;;;29.63;49.98;101253.94;4168170;28;20112;-67
2022/06/01 02:42:53;;;;;;;9.95;5.53;;;;;;;29.62;50.21;101253.13;4180425;28;20041;-67
2022/06/01 02:44:58;;;;;;;5.45;4.88;;;;;;;29.60;49.89;101249.81;4174593;28;20041;-68
2022/06/01 02:46:59;;;;;;;9.05;5.07;;;;;;;29.62;50.10;101252.28;4171844;28;20438;-67
2022/06/01 02:49:01;;;;;;;11.18;5.50;;;;;;;29.62;50.33;101252.28;4181041;28;20063;-66
2022/06/01 02:51:03;;;;;;;12.63;5.38;;;;;;;29.61;50.40;101250.66;4173640;28;20110;-68
2022/06/01 02:53:05;;;;;;;8.55;5.40;;;;;;;29.61;50.44;101256.28;4166279;28;20091;-67
2022/06/01 02:55:08;;;;;;;9.82;5.35;;;;;;;29.61;50.00;101245.84;4179388;28;20111;-67
2022/06/01 02:57:10;;;;;;;6.88;5.38;;;;;;;29.62;50.26;101246.66;4168995;28;20041;-67
2022/06/01 02:59:15;;;;;;;10.15;5.30;;;;;;;29.62;50.22;101249.47;4169228;28;20045;-67
2022/06/01 03:01:17;;;;;;;9.02;5.35;;;;;;;29.61;50.23;101245.00;4153634;28;20115;-68
2022/06/01 03:03:18;;;;;;;5.82;5.03;;;;;;;29.62;50.02;101243.84;4169292;28;20111;-68
2022/06/01 03:05:23;;;;;;;10.85;5.50;;;;;;;29.62;49.95;101243.84;4164989;28;20042;-67
2022/06/01 03:07:29;;;;;;;;;;;;;;;29.60;50.34;101244.19;4164662;28;20041;-67
2022/06/01 03:09:34;;;;;;;8.30;6.43;;;;;;;29.66;49.85;101244.00;4181323;28;19916;-68
2022/06/01 03:11:38;;;;;;;5.43;4.90;;;;;;;29.65;50.00;101246.00;4181325;28;20111;-67
2022/06/01 03:13:40;;;;;;;6.50;5.78;;;;;;;29.66;49.84;101241.19;4180683;28;20443;-67
2022/06/01 03:15:42;;;;;;;7.95;4.90;;;;;;;29.66;50.03;101244.00;4181156;28;20033;-67
2022/06/01 03:17:44;;;;;;;6.57;5.55;;;;;;;29.65;49.87;101237.53;4180786;28;20399;-67
2022/06/01 03:19:45;;;;;;;7.22;5.80;;;;;;;29.62;49.80;101235.38;4178477;28;20040;-67
2022/06/01 03:21:46;;;;;;;7.22;5.20;;;;;;;29.63;49.90;101242.66;4183104;28;20071;-67
2022/06/01 03:23:48;;;;;;;11.63;5.68;;;;;;;29.62;49.95;101235.38;4175870;28;20041;-67
2022/06/01 03:25:49;;;;;;;8.48;4.65;;;;;;;29.61;49.82;101243.00;4163578;28;20095;-68
2022/06/01 03:27:53;;;;;;;7.90;5.25;;;;;;;29.62;49.72;101235.38;4175464;28;20114;-68
2022/06/01 03:29:55;;;;;;;8.70;5.18;;;;;;;29.64;49.70;101238.69;4155258;28;20030;-68
2022/06/01 03:31:58;;;;;;;5.82;5.05;;;;;;;29.66;49.62;101229.91;4164543;28;20103;-68
2022/06/01 03:34:02;;;;;;;8.65;4.57;;;;;;;29.65;49.59;101228.25;4164614;28;20041;-68
2022/06/01 03:36:04;;;;;;;4.97;4.50;;;;;;;29.66;49.60;101230.72;4164631;28;20087;-68
2022/06/01 03:38:07;;;;;;;6.82;4.78;;;;;;;29.66;49.71;101230.72;4163771;28;20103;-67
2022/06/01 03:40:12;;;;;;;5.65;4.88;;;;;;;29.59;49.55;101219.09;4179934;28;20099;-67
2022/06/01 03:42:13;;;;;;;7.88;5.15;;;;;;;29.69;49.80;101230.06;4178032;28;20443;-66
2022/06/01 03:46:34;;;;;;;6.80;5.57;;;;;;;29.70;49.51;101234.53;4165250;28;20096;-67
2022/06/01 03:48:36;;;;;;;8.65;5.30;;;;;;;29.70;50.03;101231.72;4164306;28;20107;-67
2022/06/01 03:50:37;;;;;;;7.57;5.45;;;;;;;29.71;50.02;101227.72;4178790;28;20044;-67
2022/06/01 03:52:39;;;;;;;8.52;5.35;;;;;;;29.72;50.08;101229.38;4179764;28;20036;-67
2022/06/01 03:54:47;;;;;;;5.72;5.10;;;;;;;29.65;50.12;101217.78;4176882;28;20033;-67
2022/06/01 03:56:48;;;;;;;6.10;4.97;;;;;;;29.73;49.93;101231.03;4163822;28;20053;-67
2022/06/01 03:58:51;;;;;;;7.88;4.93;;;;;;;29.72;50.55;101228.56;4163655;28;20076;-67
2022/06/01 04:00:53;;;;;;;6.45;4.97;;;;;;;29.73;50.42;101224.56;4177120;28;20554;-67
2022/06/01 04:02:57;;;;;;;5.82;5.32;;;;;;;29.74;50.29;101220.59;4171533;28;20037;-67
2022/06/01 04:04:59;;;;;;;8.98;5.75;;;;;;;29.74;50.43;101215.78;4167707;28;20046;-67
2022/06/01 04:07:04;;;;;;;6.15;5.65;;;;;;;29.78;51.01;101227.22;4163723;28;20033;-67
2022/06/01 04:09:05;;;;;;;;;;;;;;;29.77;51.83;101225.56;4164040;28;20041;-68
2022/06/01 04:11:07;;;;;;;6.50;5.88;;;;;;;29.82;51.10;101214.91;4164850;28;20441;-67
2022/06/01 04:13:08;;;;;;;6.40;5.63;;;;;;;29.77;51.91;101203.81;4163664;28;20432;-67
2022/06/01 04:15:10;;;;;;;6.57;5.60;;;;;;;29.83;51.34;101219.41;4165827;28;20099;-67
2022/06/01 04:17:14;;;;;;;6.10;5.60;;;;;;;29.82;51.67;101214.91;4167053;28;20115;-69
2022/06/01 04:19:16;;;;;;;8.68;5.70;;;;;;;29.76;51.96;101206.97;4168678;28;20045;-67
2022/06/01 04:21:25;;;;;;;7.40;5.43;;;;;;;29.78;52.12;101210.28;4166308;28;20493;-67
2022/06/01 04:23:26;;;;;;;9.25;5.55;;;;;;;29.80;51.64;101207.97;4165209;28;20037;-67
2022/06/01 04:25:29;;;;;;;6.47;5.78;;;;;;;29.80;51.92;101205.97;4165377;28;20095;-67
2022/06/01 04:27:33;;;;;;;7.15;6.00;;;;;;;29.75;51.70;101197.69;4164205;28;20127;-68
2022/06/01 04:29:35;;;;;;;10.20;6.10;;;;;;;29.80;52.16;101205.97;4165438;28;20076;-68
2022/06/01 04:31:37;;;;;;;7.90;6.25;;;;;;;29.84;52.50;101204.13;4167099;28;20271;-68
2022/06/01 04:33:42;;;;;;;9.30;6.50;;;;;;;29.84;52.08;101211.78;4167784;28;20041;-68
2022/06/01 04:35:43;;;;;;;10.88;6.18;;;;;;;29.84;52.16;101204.13;4168023;28;20049;-68
2022/06/01 04:37:44;;;;;;;6.68;5.90;;;;;;;29.84;52.41;101209.78;4167603;28;20037;-68
2022/06/01 04:39:46;;;;;;;8.38;6.40;;;;;;;29.84;52.55;101209.78;4167703;28;20041;-67
2022/06/01 04:41:47;;;;;;;11.43;7.32;;;;;;;29.80;52.56;101200.34;4166708;28;20107;-68
2022/06/01 04:43:48;;;;;;;8.55;6.45;;;;;;;29.85;52.70;101210.59;4155019;28;20103;-68
2022/06/01 04:45:54;;;;;;;7.10;6.40;;;;;;;29.85;52.22;101211.44;4167549;28;20461;-68
2022/06/01 04:47:55;;;;;;;8.70;6.72;;;;;;;29.84;52.20;101204.13;4167282;28;20029;-68
2022/06/01 04:49:57;;;;;;;7.32;6.53;;;;;;;29.85;52.30;101207.78;4149725;28;20559;-68
2022/06/01 04:52:01;;;;;;;9.90;7.10;;;;;;;29.84;52.17;101208.97;4167112;28;20053;-68
2022/06/01 04:54:04;;;;;;;10.88;7.05;;;;;;;29.84;52.55;101208.97;4167233;28;20127;-66
2022/06/01 04:56:05;;;;;;;9.93;7.10;;;;;;;29.85;52.59;101205.78;4167203;28;20025;-66
2022/06/01 04:58:07;;;;;;;10.20;6.75;;;;;;;29.84;52.75;101204.13;4181657;28;20111;-67
2022/06/01 05:00:10;;;;;;;7.20;6.50;;;;;;;29.80;52.28;101203.16;4165940;28;20095;-66
2022/06/01 05:02:12;;;;;;;8.23;7.43;;;;;;;29.81;52.39;101204.81;4184065;28;20033;-67
2022/06/01 05:04:14;;;;;;;8.02;6.47;;;;;;;29.82;52.35;101202.81;4184777;28;20515;-67
2022/06/01 05:06:17;;;;;;;9.80;6.93;;;;;;;29.84;52.03;101208.97;4185138;28;20468;-67
2022/06/01 05:08:18;;;;;;;7.78;6.75;;;;;;;29.84;52.53;101204.13;4183409;28;20106;-67
2022/06/01 05:10:21;;;;;;;8.45;6.68;;;;;;;29.84;52.62;101209.78;4183889;28;20098;-68
2022/06/01 05:12:25;;;;;;;8.50;7.00;;;;;;;29.84;52.30;101198.50;4184148;28;20037;-67
2022/06/01 05:14:27;;;;;;;7.80;6.85;;;;;;;29.85;52.09;101199.31;4182068;28;20033;-67
2022/06/01 05:16:28;;;;;;;10.70;7.63;;;;;;;29.81;52.43;101196.34;4183119;28;20419;-67
2022/06/01 05:18:33;;;;;;;8.15;7.43;;;;;;;29.85;52.01;101205.78;4184291;28;20029;-67
2022/06/01 05:20:40;;;;;;;8.27;7.57;;;;;;;29.85;52.43;101200.16;4183194;28;20041;-67
2022/06/01 05:22:41;;;;;;;8.25;7.35;;;;;;;29.82;52.22;101194.34;4183634;28;20037;-67
2022/06/01 05:24:48;;;;;;;8.15;7.35;;;;;;;29.86;51.91;101189.69;4183195;28;20049;-67
2022/06/01 05:26:50;;;;;;;9.13;7.75;;;;;;;29.86;52.34;101189.69;4183554;28;20538;-67
2022/06/01 05:28:51;;;;;;;7.95;7.25;;;;;;;29.86;52.43;101189.69;4184182;28;20408;-68
2022/06/01 05:30:59;;;;;;;7.25;6.63;;;;;;;29.84;52.05;101187.22;4182622;28;20095;-67
2022/06/01 05:33:01;;;;;;;8.98;7.18;;;;;;;29.85;52.12;101183.22;4183168;28;20537;-66
2022/06/01 05:35:03;;;;;;;9.63;7.35;;;;;;;29.84;51.94;101175.94;4183249;28;20373;-67
2022/06/01 05:37:04;;;;;;;10.65;7.43;;;;;;;29.84;52.28;101181.56;4183115;28;20041;-67
2022/06/01 05:39:05;;;;;;;8.75;7.85;;;;;;;29.84;52.16;101181.56;4183146;28;20041;-67
2022/06/01 05:41:07;;;;;;;7.50;6.80;;;;;;;29.83;51.92;101179.94;4182918;28;20033;-67
2022/06/01 05:43:11;;;;;;;8.10;7.28;;;;;;;29.83;52.06;101179.94;4182826;28;20067;-67
2022/06/01 05:45:12;;;;;;;8.20;7.22;;;;;;;29.84;52.16;101186.38;4180545;28;20431;-66
2022/06/01 05:47:14;;;;;;;8.25;7.53;;;;;;;29.83;52.14;101182.75;4165760;28;20096;-67
2022/06/01 05:49:15;;;;;;;8.07;7.28;;;;;;;29.83;51.99;101194.03;4166674;28;20057;-67
2022/06/01 05:51:17;;;;;;;8.07;7.38;;;;;;;29.83;51.96;101182.75;4166955;28;20029;-67
2022/06/01 05:53:20;;;;;;;7.97;7.28;;;;;;;29.83;51.96;101191.22;4165860;28;20045;-67
2022/06/01 05:55:24;;;;;;;7.82;7.05;;;;;;;29.83;51.87;101182.75;4166030;28;20127;-67
2022/06/01 05:57:25;;;;;;;9.40;8.00;;;;;;;29.84;51.99;101187.22;4164859;28;20037;-67
2022/06/01 05:59:26;;;;;;;8.48;7.68;;;;;;;29.83;51.91;101191.22;4166438;28;20057;-67
2022/06/01 06:01:28;;;;;;;8.30;7.60;;;;;;;29.84;52.07;101183.56;4170434;28;20024;-67
2022/06/01 06:03:30;;;;;;;8.00;7.30;;;;;;;29.84;51.95;101189.22;4182536;28;20057;-67
2022/06/01 06:07:59;;;;;;;8.38;7.57;;;;;;;29.77;51.65;101174.78;4183849;28;20099;-67
2022/06/01 06:10:03;;;;;;;8.50;7.75;;;;;;;29.85;51.78;101188.03;4182934;28;20095;-67
2022/06/01 06:12:05;;;;;;;9.68;7.57;;;;;;;29.84;51.47;101181.56;4182446;28;20091;-68
2022/06/01 06:14:07;;;;;;;8.35;7.65;;;;;;;29.82;51.52;101183.88;4182760;28;20098;-68
2022/06/01 06:16:09;;;;;;;7.97;7.28;;;;;;;29.79;51.83;101175.28;4182387;28;20041;-68
2022/06/01 06:18:12;;;;;;;8.57;7.78;;;;;;;29.84;51.70;101194.84;4182383;28;20086;-68
2022/06/01 06:20:14;;;;;;;8.63;7.82;;;;;;;29.84;51.59;101180.75;4180013;28;20476;-68
2022/06/01 06:22:18;;;;;;;7.88;7.20;;;;;;;29.79;51.75;101181.75;4182039;28;20041;-68
2022/06/01 06:24:23;;;;;;;8.97;8.17;;;;;;;29.82;51.57;101178.25;4182510;28;20032;-68
2022/06/01 06:26:25;;;;;;;8.40;7.70;;;;;;;29.83;51.81;101182.75;4180688;28;20285;-68
2022/06/01 06:28:26;;;;;;;8.60;7.80;;;;;;;29.83;51.82;101179.09;4181656;28;20093;-68
2022/06/01 06:30:31;;;;;;;8.13;7.32;;;;;;;29.82;52.00;101181.06;4182276;28;20041;-68
2022/06/01 06:32:32;;;;;;;;;;;;;;;29.81;51.61;101176.59;4182263;28;20622;-68
2022/06/01 06:34:33;;;;;;;8.73;7.93;;;;;;;29.86;51.50;101175.59;4182024;28;19913;-68
2022/06/01 06:36:35;;;;;;;9.38;8.40;;;;;;;29.86;51.77;101179.22;4181738;28;20040;-68
2022/06/01 06:38:37;;;;;;;9.48;8.57;;;;;;;29.86;51.73;101178.41;4180552;28;20037;-67
2022/06/01 06:40:38;;;;;;;9.60;8.80;;;;;;;29.84;51.95;101175.94;4181930;28;20044;-68
2022/06/01 06:42:40;;;;;;;9.55;8.57;;;;;;;29.79;51.78;101167.66;4182472;28;20041;-68
2022/06/01 06:44:41;;;;;;;8.50;7.68;;;;;;;29.84;51.85;101175.09;4182348;28;20036;-68
2022/06/01 06:46:44;;;;;;;9.15;8.38;;;;;;;29.75;52.21;101160.19;4182362;28;20094;-67
2022/06/01 06:48:50;;;;;;;8.57;7.88;;;;;;;29.84;51.68;101177.94;4181721;28;20435;-68
2022/06/01 06:50:52;;;;;;;9.15;8.20;;;;;;;29.83;51.65;101177.09;4180742;28;20090;-68
2022/06/01 06:52:53;;;;;;;8.90;8.00;;;;;;;29.83;52.14;101162.19;4182004;28;20110;-68
2022/06/01 06:54:55;;;;;;;9.35;8.52;;;;;;;29.83;51.55;101173.47;4181368;28;20041;-68
2022/06/01 06:56:59;;;;;;;8.50;7.80;;;;;;;29.81;51.72;101159.66;4181007;28;20079;-68
2022/06/01 06:59:01;;;;;;;9.07;8.27;;;;;;;29.79;51.64;101162.00;4182120;28;20102;-68
2022/06/01 07:01:03;;;;;;;8.90;8.10;;;;;;;29.82;51.74;101172.59;4181468;28;20460;-68
2022/06/01 07:03:05;;;;;;;9.68;8.70;;;;;;;29.82;51.61;101172.59;4181818;28;20037;-67
2022/06/01 07:06:08;;;;;;;9.13;8.32;;;;;;;29.80;51.69;101160.84;4180502;28;20045;-68
2022/06/01 07:07:29;;;;;;;8.50;7.78;;;;;;;29.82;51.94;101171.78;4172429;28;20080;-68
2022/06/01 07:09:34;;;;;;;9.18;8.38;;;;;;;29.83;51.98;101163.00;4163962;28;20095;-68
2022/06/01 07:11:37;;;;;;;;;;;;;;;29.81;51.25;101170.94;4166234;28;20176;-68
2022/06/01 07:13:39;;;;;;;8.90;8.10;;;;;;;29.85;51.52;101163.47;4165455;28;19917;-68
2022/06/01 07:15:41;;;;;;;9.07;8.38;;;;;;;29.87;51.57;101166.81;4147604;28;20065;-68
2022/06/01 07:17:47;;;;;;;8.98;8.20;;;;;;;29.81;51.48;101154.03;4164860;28;20041;-68
2022/06/01 07:19:53;;;;;;;8.50;7.80;;;;;;;29.83;51.31;101163.00;4165426;28;20037;-68
2022/06/01 07:21:55;;;;;;;8.93;8.23;;;;;;;29.84;51.59;101158.19;4165422;28;20041;-68
2022/06/01 07:23:56;;;;;;;8.50;7.80;;;;;;;29.81;51.27;101170.94;4178364;28;20033;-68
2022/06/01 07:26:01;;;;;;;9.70;8.82;;;;;;;29.79;51.51;101167.66;4181104;28;20041;-68
2022/06/01 07:28:02;;;;;;;;;;;;;;;29.80;51.42;101174.94;4181410;28;20041;-67
2022/06/01 07:30:06;;;;;;;9.50;8.30;;;;;;;29.85;51.51;101182.41;4182315;28;19959;-68
2022/06/01 07:32:07;;;;;;;9.82;8.38;;;;;;;29.84;51.38;101175.94;4181341;28;20041;-67
2022/06/01 07:34:12;;;;;;;8.98;8.23;;;;;;;29.83;51.75;101177.09;4181546;28;20118;-67
2022/06/01 07:36:15;;;;;;;10.00;8.95;;;;;;;29.83;51.85;101174.28;4181350;28;20042;-67
2022/06/01 07:43:06;;;;;;;8.40;7.70;;;;;;;29.83;51.31;101174.28;4181890;28;20106;-67
2022/06/01 07:45:07;;;;;;;9.48;8.57;;;;;;;29.82;51.39;101183.06;4181200;28;20480;-67
2022/06/01 07:47:09;;;;;;;10.00;9.10;;;;;;;29.81;51.59;101181.41;4181091;28;20037;-67
2022/06/01 07:49:11;;;;;;;9.68;8.70;;;;;;;29.80;51.68;101186.22;4164169;28;20076;-67
2022/06/01 07:51:13;;;;;;;9.27;8.48;;;;;;;29.80;51.56;101186.22;4181505;28;20045;-67
2022/06/01 07:53:14;;;;;;;9.32;8.52;;;;;;;29.79;51.40;101178.94;4181124;28;20041;-68
2022/06/01 07:55:15;;;;;;;8.80;8.00;;;;;;;29.78;51.65;101191.38;4181116;28;20099;-67
2022/06/01 07:57:17;;;;;;;9.27;8.38;;;;;;;29.77;51.50;101181.25;4180699;28;20477;-67
2022/06/01 07:59:18;;;;;;;10.10;9.02;;;;;;;29.80;51.22;101189.03;4180479;28;20457;-67
2022/06/01 08:01:25;;;;;;;9.82;8.93;;;;;;;29.78;51.57;101177.28;4180605;28;20049;-67
2022/06/01 08:03:30;;;;;;;9.65;8.77;;;;;;;29.79;51.66;101173.28;4181414;28;20374;-67
2022/06/01 08:05:31;;;;;;;9.65;8.70;;;;;;;29.79;51.58;101181.75;4181764;28;20045;-67
2022/06/01 08:07:35;;;;;;;9.13;8.32;;;;;;;29.77;51.26;101186.88;4184248;28;20473;-67
2022/06/01 08:09:39;;;;;;;9.85;8.85;;;;;;;29.79;51.23;101183.75;4184265;28;20370;-67
2022/06/01 08:14:19;;;;;;;9.55;8.65;;;;;;;29.74;50.95;101181.94;4185225;28;20206;-67
2022/06/01 08:16:23;;;;;;;10.25;9.35;;;;;;;29.77;51.00;101184.06;4151081;28;20464;-67
2022/06/01 08:18:25;;;;;;;9.63;8.77;;;;;;;29.76;50.98;101192.88;4165902;28;20119;-67
2022/06/01 08:20:28;;;;;;;9.85;8.93;;;;;;;29.76;50.90;101188.06;4167572;28;20531;-67
2022/06/01 08:22:30;;;;;;;9.53;8.73;;;;;;;29.75;50.89;101183.59;4166821;28;20473;-67
2022/06/01 08:24:34;;;;;;;11.15;9.65;;;;;;;29.75;50.76;101177.94;4167064;28;20534;-67
2022/06/01 08:26:36;;;;;;;9.40;8.60;;;;;;;29.72;50.78;101178.59;4166291;28;20041;-68
2022/06/01 08:28:37;;;;;;;10.18;9.30;;;;;;;29.75;50.52;101182.75;4167394;28;20029;-67
2022/06/01 08:30:41;;;;;;;10.25;9.32;;;;;;;29.74;50.47;101183.94;4167220;28;20042;-67
2022/06/01 08:32:43;;;;;;;10.75;9.75;;;;;;;29.72;50.49;101184.25;4167124;28;20046;-67
2022/06/01 08:34:44;;;;;;;10.93;9.93;;;;;;;29.72;50.32;101187.06;4168007;28;20033;-68
2022/06/01 08:36:48;;;;;;;9.75;8.77;;;;;;;29.71;50.17;101185.41;4167037;28;20037;-68
2022/06/01 08:38:50;;;;;;;10.35;9.35;;;;;;;29.69;49.94;101182.13;4168127;28;20029;-68
2022/06/01 08:41:09;;;;;;;10.73;9.75;;;;;;;29.70;50.07;101185.78;4166984;28;20037;-68
2022/06/01 08:43:15;;;;;;;9.65;8.85;;;;;;;29.67;49.91;101181.63;4167306;28;20473;-68
2022/06/01 08:45:17;;;;;;;9.18;8.38;;;;;;;29.68;49.98;101182.44;4166936;28;20041;-68
2022/06/01 08:47:33;;;;;;;9.70;8.82;;;;;;;29.67;50.22;101181.63;4166009;28;20042;-68
2022/06/01 08:49:36;;;;;;;10.68;9.13;;;;;;;29.68;49.84;101188.91;4166584;28;20045;-68
2022/06/01 08:51:38;;;;;;;10.88;9.90;;;;;;;29.69;49.88;101206.66;4176847;28;20041;-68
2022/06/01 08:53:40;;;;;;;10.73;9.65;;;;;;;29.69;49.72;101201.88;4170835;28;20040;-68
2022/06/01 08:55:57;;;;;;;10.38;9.48;;;;;;;29.66;49.77;101208.16;4183516;28;20095;-68
2022/06/01 08:58:10;;;;;;;9.82;8.98;;;;;;;29.64;50.11;101207.66;4183302;28;20037;-66
2022/06/01 09:00:27;;;;;;;10.18;9.27;;;;;;;29.67;49.97;101209.81;4183791;28;20096;-67
2022/06/01 09:02:50;;;;;;;10.05;9.10;;;;;;;29.66;49.79;101219.44;4182865;28;20087;-67
2022/06/01 09:05:08;;;;;;;9.85;8.95;;;;;;;29.68;50.02;101221.91;4183471;28;20086;-67
2022/06/01 09:07:26;;;;;;;9.70;8.85;;;;;;;29.66;49.71;101225.09;4183023;28;20370;-68
2022/06/01 09:09:45;;;;;;;11.05;10.00;;;;;;;29.65;49.78;101234.72;4183614;28;20083;-68
2022/06/01 09:11:47;;;;;;;10.15;9.32;;;;;;;29.66;49.83;101236.38;4165506;28;20037;-68
2022/06/01 09:14:10;;;;;;;10.73;9.40;;;;;;;29.60;49.83;101232.06;4183587;28;20032;-68
2022/06/01 09:16:19;;;;;;;10.05;9.05;;;;;;;29.64;49.87;101244.31;4183282;28;20071;-68
2022/06/01 09:18:24;;;;;;;11.98;9.15;;;;;;;29.65;49.91;101240.34;4179872;28;20045;-67
2022/06/01 09:22:49;;;;;;;10.00;9.07;;;;;;;29.61;49.58;101245.00;4184495;28;20431;-67
2022/06/01 09:24:51;;;;;;;10.75;8.73;;;;;;;29.62;49.67;101252.28;4166348;28;20033;-67
2022/06/01 09:26:59;;;;;;;11.73;9.43;;;;;;;29.62;49.61;101257.94;4182402;28;20041;-67
2022/06/01 09:29:02;;;;;;;11.20;9.70;;;;;;;29.61;49.72;101257.13;4183224;28;20552;-67
2022/06/01 09:31:29;;;;;;;12.25;8.90;;;;;;;29.56;49.92;101242.34;4183064;28;20040;-67
2022/06/01 09:33:33;;;;;;;10.82;9.23;;;;;;;29.62;49.79;101246.66;4181423;28;20048;-67
2022/06/01 09:35:41;;;;;;;11.00;9.73;;;;;;;29.61;49.89;101256.28;4166569;28;20042;-67
2022/06/01 09:37:46;;;;;;;14.02;9.73;;;;;;;29.62;49.87;101257.94;4166239;28;20099;-67
2022/06/01 09:39:55;;;;;;;11.25;8.77;;;;;;;29.62;49.81;101252.28;4166519;28;20046;-67
2022/06/01 09:42:17;;;;;;;13.32;8.80;;;;;;;29.59;49.84;101258.59;4166436;28;20033;-67
2022/06/01 09:44:31;;;;;;;13.00;9.10;;;;;;;29.60;49.94;101260.28;4166139;28;20037;-67
2022/06/01 09:46:48;;;;;;;10.00;8.98;;;;;;;29.59;49.69;101262.22;4166287;28;20038;-67
2022/06/01 09:48:49;;;;;;;11.23;9.00;;;;;;;29.59;49.82;101259.41;4165836;28;20432;-67
2022/06/01 09:51:14;;;;;;;13.13;9.65;;;;;;;29.59;49.67;101269.88;4161827;28;20041;-67
2022/06/01 09:53:18;;;;;;;10.00;8.35;;;;;;;29.61;49.73;101270.38;4166055;28;20046;-67
2022/06/01 09:55:22;;;;;;;;;;;;;;;28.95;49.96;101183.13;4166637;28;20050;-67
2022/06/01 09:57:38;;;;;;;12.77;9.00;;;;;;;29.64;49.78;101264.06;4166026;28;19917;-67
2022/06/01 10:06:57;;;;;;;13.65;8.63;;;;;;;29.61;49.48;101276.03;4169049;28;20164;-67